createdAt,value
2019-05-17T00:01:49.970Z,100.00
2019-05-17T00:04:21.698Z,100.00
2019-05-17T00:06:53.917Z,100.00
2019-05-17T00:09:26.865Z,100.00
2019-05-17T00:11:58.861Z,100.00
2019-05-17T00:14:30.567Z,100.00
2019-05-17T00:17:02.641Z,100.00
2019-05-17T00:19:36.904Z,100.00
2019-05-17T00:22:09.892Z,100.00
2019-05-17T00:24:41.792Z,100.00
2019-05-17T00:27:14.064Z,100.00
2019-05-17T00:29:46.493Z,100.00
2019-05-17T00:32:19.159Z,100.00
2019-05-17T00:34:50.970Z,100.00
2019-05-17T00:37:23.234Z,100.00
2019-05-17T00:39:56.720Z,100.00
2019-05-17T00:42:28.576Z,100.00
2019-05-17T00:45:00.434Z,100.00
2019-05-17T00:47:32.496Z,100.00
2019-05-17T04:53:37.088Z,100.00
2019-05-17T04:56:08.629Z,100.00
2019-05-17T04:58:42.908Z,100.00
2019-05-17T05:01:14.297Z,100.00
2019-05-17T05:03:46.121Z,100.00
2019-05-17T05:06:18.407Z,100.00
2019-05-17T05:08:52.699Z,100.00
2019-05-17T05:11:23.483Z,100.00
2019-05-17T05:13:55.090Z,100.00
2019-05-17T05:16:26.823Z,100.00
2019-05-17T05:18:58.369Z,100.00
2019-05-17T05:21:32.299Z,100.00
2019-05-17T05:24:04.181Z,100.00
2019-05-17T05:26:35.820Z,100.00
2019-05-17T05:29:07.661Z,100.00
2019-05-17T05:31:39.565Z,100.00
2019-05-17T05:34:12.344Z,100.00
2019-05-17T05:36:44.188Z,100.00
2019-05-17T05:39:16.202Z,100.00
2019-05-17T15:12:48.504Z,50.05
2019-05-17T15:15:27.967Z,50.17
2019-05-17T15:17:54.351Z,52.11
2019-05-17T15:20:26.212Z,50.85
2019-05-17T15:22:57.973Z,49.67
2019-05-17T15:25:30.209Z,48.33
2019-05-17T15:28:02.033Z,48.01
2019-05-17T15:30:33.583Z,47.14
2019-05-17T15:33:05.815Z,46.21
2019-05-17T15:35:38.111Z,45.93
2019-05-17T15:38:11.233Z,45.57
2019-05-17T15:40:43.271Z,47.52
2019-05-17T15:43:15.022Z,48.85
2019-05-17T15:45:46.689Z,48.10
2019-05-17T15:48:18.250Z,48.67
2019-05-17T15:50:51.653Z,49.63
2019-05-17T15:53:23.595Z,51.77
2019-05-17T15:55:55.171Z,52.67
2019-05-17T15:58:27.049Z,53.46
2019-05-17T16:00:59.531Z,54.51
2019-05-17T16:03:31.418Z,55.48
2019-05-17T16:06:03.318Z,56.94
2019-05-17T16:08:35.024Z,57.34
2019-05-17T16:11:06.894Z,58.25
2019-05-17T16:13:38.885Z,60.60
2019-05-17T16:16:10.499Z,62.34
2019-05-17T16:18:42.144Z,64.05
2019-05-17T16:21:13.902Z,64.98
2019-05-17T16:23:47.528Z,66.11
2019-05-17T16:26:19.615Z,66.73
2019-05-17T16:28:51.223Z,67.04
2019-05-17T16:31:22.999Z,67.03
2019-05-17T16:33:54.873Z,66.91
2019-05-17T16:36:26.489Z,67.68
2019-05-17T16:38:58.400Z,67.15
2019-05-17T16:41:30.624Z,67.42
2019-05-17T16:44:02.420Z,67.39
2019-05-17T16:46:34.294Z,67.41
2019-05-17T16:49:05.943Z,67.18
2019-05-17T16:51:37.536Z,67.56
2019-05-17T16:54:09.194Z,67.51
2019-05-17T16:56:40.969Z,68.65
2019-05-17T16:59:13.070Z,68.95
2019-05-17T17:01:44.744Z,71.11
2019-05-17T17:04:16.692Z,71.72
2019-05-17T17:06:48.578Z,71.30
2019-05-17T17:09:20.208Z,70.61
2019-05-17T17:11:51.903Z,70.40
2019-05-17T17:14:24.363Z,70.80
2019-05-17T17:16:56.113Z,71.54
2019-05-17T17:19:28.418Z,72.63
2019-05-17T17:22:00.625Z,73.25
2019-05-17T17:24:33.534Z,73.46
2019-05-17T17:27:05.919Z,73.79
2019-05-17T17:29:38.593Z,73.28
2019-05-17T17:32:21.260Z,72.99
2019-05-17T17:34:43.838Z,72.81
2019-05-17T17:37:15.521Z,70.50
2019-05-17T17:39:47.569Z,71.77
2019-05-17T17:42:20.002Z,72.45
2019-05-17T17:44:52.282Z,71.72
2019-05-17T17:47:23.982Z,72.19
2019-05-17T17:49:56.482Z,71.21
2019-05-17T17:52:28.322Z,70.65
2019-05-17T17:55:00.614Z,70.41
2019-05-17T17:57:32.547Z,70.72
2019-05-17T18:00:05.574Z,71.19
2019-05-17T18:02:39.048Z,70.83
2019-05-17T18:05:10.916Z,70.60
2019-05-17T18:07:42.726Z,70.95
2019-05-17T18:10:24.393Z,71.15
2019-05-17T18:12:57.646Z,71.18
2019-05-17T18:15:43.045Z,70.88
2019-05-17T18:18:15.182Z,71.56
2019-05-17T18:20:46.947Z,73.63
2019-05-17T18:23:22.930Z,74.02
2019-05-17T18:25:52.326Z,73.67
2019-05-17T18:28:24.049Z,72.84
2019-05-17T18:30:55.715Z,73.50
2019-05-17T18:33:27.417Z,73.41
2019-05-17T18:35:59.891Z,73.46
2019-05-17T18:38:33.310Z,74.17
2019-05-17T18:41:06.402Z,74.58
2019-05-17T18:43:38.530Z,74.58
2019-05-17T18:46:10.176Z,75.31
2019-05-17T18:48:41.729Z,75.48
2019-05-17T18:51:14.961Z,75.15
2019-05-17T18:53:47.001Z,76.14
2019-05-17T18:56:19.285Z,76.47
2019-05-17T18:58:50.962Z,76.50
2019-05-17T19:01:22.738Z,76.54
2019-05-17T19:03:54.368Z,76.41
2019-05-17T19:06:26.142Z,76.30
2019-05-17T19:08:58.998Z,76.93
2019-05-17T19:11:31.221Z,77.25
2019-05-17T19:14:02.973Z,77.80
2019-05-17T19:16:35.277Z,78.32
2019-05-17T19:19:07.327Z,78.51
2019-05-17T19:21:39.165Z,78.54
2019-05-17T19:24:12.221Z,78.70
2019-05-17T19:26:43.862Z,78.58
2019-05-17T19:29:15.591Z,78.52
2019-05-17T19:31:47.413Z,79.50
2019-05-17T19:34:19.259Z,79.19
2019-05-17T19:36:51.035Z,78.69
2019-05-17T19:39:22.676Z,79.53
2019-05-17T19:41:54.536Z,79.55
2019-05-17T19:44:26.100Z,80.18
2019-05-17T19:46:57.923Z,79.76
2019-05-17T19:49:29.864Z,79.52
2019-05-17T19:52:01.521Z,79.09
2019-05-17T19:54:33.529Z,79.57
2019-05-17T19:57:05.935Z,79.86
2019-05-17T19:59:37.605Z,79.95
2019-05-17T20:02:09.340Z,80.07
2019-05-17T20:04:41.197Z,80.22
2019-05-17T20:07:13.100Z,79.75
2019-05-17T20:09:44.798Z,78.80
2019-05-17T20:12:16.575Z,80.25
2019-05-17T20:14:48.553Z,82.56
2019-05-17T20:17:20.427Z,83.08
2019-05-17T20:19:52.029Z,81.70
2019-05-17T20:22:23.915Z,82.29
2019-05-17T20:24:55.592Z,82.27
2019-05-17T20:27:28.530Z,81.68
2019-05-17T20:30:01.712Z,81.76
2019-05-17T20:32:34.721Z,82.41
2019-05-17T20:35:07.092Z,82.89
2019-05-17T20:37:40.023Z,82.22
2019-05-17T20:40:12.195Z,82.19
2019-05-17T20:42:44.334Z,83.28
2019-05-17T20:45:30.600Z,82.80
2019-05-17T20:47:50.860Z,83.09
2019-05-17T20:50:22.997Z,83.44
2019-05-17T20:52:54.655Z,83.84
2019-05-17T20:55:27.534Z,83.85
2019-05-17T20:57:59.358Z,83.57
2019-05-17T21:00:31.131Z,82.98
2019-05-17T21:03:02.797Z,82.74
2019-05-17T21:05:36.110Z,82.73
2019-05-17T21:08:09.056Z,82.73
2019-05-17T21:10:40.870Z,82.87
2019-05-17T21:13:13.789Z,83.00
2019-05-17T21:15:48.222Z,83.14
2019-05-17T21:18:20.152Z,82.96
2019-05-17T21:20:51.903Z,83.33
2019-05-17T21:23:23.708Z,83.81
2019-05-17T21:25:55.389Z,83.68
2019-05-17T21:28:27.615Z,82.35
2019-05-17T21:30:59.437Z,81.87
2019-05-17T21:33:31.219Z,82.00
2019-05-17T21:36:03.537Z,80.85
2019-05-17T21:38:35.300Z,81.65
2019-05-17T21:41:07.190Z,82.41
2019-05-17T21:43:38.840Z,82.12
2019-05-17T21:46:10.585Z,82.18
2019-05-17T21:48:43.343Z,81.61
2019-05-17T21:51:16.649Z,81.67
2019-05-17T21:53:48.459Z,82.00
2019-05-17T21:56:20.309Z,82.06
2019-05-17T21:58:53.068Z,82.22
2019-05-17T22:01:27.053Z,82.43
2019-05-17T22:03:59.470Z,82.66
2019-05-17T22:06:31.162Z,81.69
2019-05-17T22:09:04.729Z,80.81
2019-05-17T22:11:38.004Z,80.63
2019-05-17T22:14:09.562Z,80.21
2019-05-17T22:16:41.307Z,81.14
2019-05-17T22:19:12.820Z,81.21
2019-05-17T22:21:44.580Z,81.80
2019-05-17T22:24:16.463Z,82.42
2019-05-17T22:26:48.154Z,83.70
2019-05-17T22:29:20.786Z,83.52
2019-05-17T22:31:52.621Z,83.85
2019-05-17T22:34:24.614Z,84.38
2019-05-17T22:36:56.534Z,85.28
2019-05-17T22:39:28.312Z,85.71
2019-05-17T22:42:00.412Z,86.45
2019-05-17T22:44:32.495Z,86.45
2019-05-17T22:47:05.968Z,86.73
2019-05-17T22:49:37.481Z,86.79
2019-05-17T22:52:09.120Z,87.06
2019-05-17T22:54:41.061Z,87.35
2019-05-17T22:57:12.680Z,88.62
2019-05-17T22:59:45.886Z,88.81
2019-05-17T23:02:17.848Z,88.96
2019-05-17T23:04:49.756Z,88.88
2019-05-17T23:07:21.393Z,88.80
2019-05-17T23:09:53.299Z,88.75
2019-05-17T23:12:24.969Z,88.77
2019-05-17T23:14:56.839Z,89.31
2019-05-17T23:17:28.630Z,89.86
2019-05-17T23:20:00.455Z,89.91
2019-05-17T23:22:32.190Z,90.04
2019-05-17T23:25:03.960Z,90.27
2019-05-17T23:27:36.162Z,90.34
2019-05-17T23:30:08.327Z,90.09
2019-05-17T23:32:40.117Z,89.93
2019-05-17T23:35:11.912Z,89.84
2019-05-17T23:37:44.100Z,89.67
2019-05-17T23:40:15.914Z,89.44
2019-05-17T23:42:47.541Z,89.76
2019-05-17T23:45:19.379Z,89.73
2019-05-17T23:47:50.907Z,89.88
2019-05-17T23:50:23.937Z,89.90
2019-05-17T23:52:55.951Z,90.06
2019-05-17T23:55:27.955Z,89.99
2019-05-17T23:57:59.556Z,89.96
